Time;durP1;ratioP1;P1;durP2;ratioP2;P2;SDS_P1;SDS_P2;PMS_P1;PMS_P2;Temp;Humidity;BMP_temperature;BMP_pressure;BME280_temperature;BME280_humidity;BME280_pressure;Samples;Min_cycle;Max_cycle;Signal;HPM_P1;HPM_P2
2022/07/02 00:00:54;;;;;;;5.88;1.40;;;12.60;99.90;;;;;;4973522;28;20034;-53
2022/07/02 00:03:36;;;;;;;3.75;1.30;;;12.60;99.90;;;;;;4956311;28;20395;-53
2022/07/02 00:06:05;;;;;;;5.68;1.60;;;12.60;99.90;;;;;;4973489;28;20027;-53
2022/07/02 00:08:32;;;;;;;5.93;1.40;;;12.50;99.90;;;;;;4956255;28;20030;-51
2022/07/02 00:10:58;;;;;;;7.45;1.52;;;12.60;99.90;;;;;;4973443;28;20031;-60
2022/07/02 00:13:26;;;;;;;6.85;1.45;;;12.60;99.90;;;;;;4973275;28;20128;-58
2022/07/02 00:15:52;;;;;;;6.75;1.83;;;12.50;99.90;;;;;;4973201;28;20181;-51
2022/07/02 00:18:19;;;;;;;3.90;1.23;;;12.50;99.90;;;;;;4973372;28;20509;-49
2022/07/02 00:20:47;;;;;;;3.40;1.30;;;12.50;99.90;;;;;;4973096;28;20027;-50
2022/07/02 00:23:13;;;;;;;5.63;1.67;;;12.50;99.90;;;;;;4973134;28;20045;-51
2022/07/02 00:25:41;;;;;;;5.20;1.40;;;12.50;99.90;;;;;;4973230;28;20019;-43
2022/07/02 00:28:11;;;;;;;4.20;1.48;;;12.50;99.90;;;;;;4972728;28;20050;-54
2022/07/02 00:30:37;;;;;;;;;;;12.50;99.90;;;;;;4973570;28;20019;-52
2022/07/02 00:33:03;;;;;;;5.75;1.30;;;12.50;99.90;;;;;;4973151;28;20005;-54
2022/07/02 00:35:29;;;;;;;6.90;1.63;;;12.50;99.90;;;;;;4972749;28;20101;-55
2022/07/02 00:37:56;;;;;;;2.75;0.98;;;12.50;99.90;;;;;;4972867;28;20489;-54
2022/07/02 00:40:24;;;;;;;2.55;1.30;;;12.60;99.90;;;;;;4972884;28;20041;-50
2022/07/02 00:42:50;;;;;;;7.00;1.52;;;12.60;99.90;;;;;;4972842;28;20022;-47
2022/07/02 00:45:18;;;;;;;7.20;1.50;;;12.60;99.90;;;;;;4972745;28;20030;-47
2022/07/02 00:47:44;;;;;;;4.47;1.50;;;12.60;99.90;;;;;;4973191;28;20035;-53
2022/07/02 00:50:10;;;;;;;6.03;1.73;;;12.60;99.90;;;;;;4972776;28;20446;-51
2022/07/02 00:52:35;;;;;;;5.13;1.20;;;12.60;99.90;;;;;;4972774;28;20027;-54
2022/07/02 00:55:01;;;;;;;4.05;1.42;;;12.70;99.90;;;;;;4972752;28;20034;-54
2022/07/02 00:57:27;;;;;;;5.63;1.70;;;12.60;99.90;;;;;;4972485;28;20019;-56
2022/07/02 00:59:53;;;;;;;3.38;1.45;;;12.60;99.90;;;;;;4972782;28;20022;-52
2022/07/02 01:02:22;;;;;;;5.65;1.45;;;12.50;99.90;;;;;;4972357;28;20023;-49
2022/07/02 01:04:49;;;;;;;2.83;1.40;;;12.60;99.90;;;;;;4972712;28;20042;-57
2022/07/02 01:07:16;;;;;;;8.07;1.77;;;12.60;99.90;;;;;;4972377;28;20022;-55
2022/07/02 01:12:33;;;;;;;;;;;12.50;99.90;;;;;;4973025;28;20089;-58
2022/07/02 01:14:58;;;;;;;4.47;1.50;;;12.50;99.90;;;;;;4972673;28;19906;-48
2022/07/02 01:17:24;;;;;;;6.65;1.38;;;12.50;99.90;;;;;;4972546;28;20042;-43
2022/07/02 01:19:51;;;;;;;5.13;1.40;;;12.50;99.90;;;;;;4972147;28;20026;-48
2022/07/02 01:22:18;;;;;;;2.15;1.25;;;12.50;99.90;;;;;;4972350;28;20486;-48
2022/07/02 01:24:46;;;;;;;3.05;1.50;;;12.50;99.90;;;;;;4972229;28;20075;-44
2022/07/02 01:27:12;;;;;;;5.07;1.35;;;12.50;99.90;;;;;;4972204;28;20045;-44
2022/07/02 01:29:38;;;;;;;5.18;1.50;;;12.50;99.90;;;;;;4972274;28;20027;-41
2022/07/02 01:32:05;;;;;;;4.97;1.27;;;12.50;99.90;;;;;;4972228;28;20275;-39
2022/07/02 01:34:37;;;;;;;5.63;1.60;;;12.50;99.90;;;;;;4972251;28;20045;-40
2022/07/02 01:37:06;;;;;;;4.50;1.30;;;12.40;99.90;;;;;;4972053;28;20030;-40
2022/07/02 01:39:31;;;;;;;3.00;1.27;;;12.40;99.90;;;;;;4972280;28;20027;-40
2022/07/02 01:41:57;;;;;;;3.47;1.30;;;12.40;99.90;;;;;;4972212;28;20454;-40
2022/07/02 01:44:23;;;;;;;3.78;1.30;;;12.40;99.90;;;;;;4972109;28;20105;-44
2022/07/02 01:46:48;;;;;;;1.75;1.08;;;12.30;99.90;;;;;;4972543;28;20094;-41
2022/07/02 01:49:14;;;;;;;3.67;1.42;;;12.20;99.90;;;;;;4976141;28;20027;-42
2022/07/02 01:51:40;;;;;;;2.42;1.10;;;12.20;99.90;;;;;;4975724;28;20069;-46
2022/07/02 01:54:07;;;;;;;3.28;1.10;;;12.10;99.90;;;;;;4975803;28;20027;-44
2022/07/02 01:56:33;;;;;;;2.70;1.45;;;12.10;99.90;;;;;;4976216;28;20045;-55
2022/07/02 01:58:59;;;;;;;5.20;1.35;;;12.00;99.90;;;;;;4975861;28;20050;-57
2022/07/02 02:01:25;;;;;;;6.68;1.50;;;11.90;99.90;;;;;;4975855;28;20070;-49
2022/07/02 02:03:50;;;;;;;3.08;1.27;;;11.90;99.90;;;;;;4975691;28;20043;-55
2022/07/02 02:06:16;;;;;;;3.65;1.45;;;11.90;99.90;;;;;;4975903;28;20034;-56
2022/07/02 02:08:42;;;;;;;4.30;1.33;;;11.90;99.90;;;;;;4958425;28;20027;-56
2022/07/02 02:11:07;;;;;;;6.55;1.08;;;11.90;99.90;;;;;;4975602;28;20355;-44
2022/07/02 02:13:33;;;;;;;4.20;1.42;;;11.90;99.90;;;;;;4975588;28;20058;-46
2022/07/02 02:15:59;;;;;;;4.93;1.30;;;11.90;99.90;;;;;;4975522;28;20398;-50
2022/07/02 02:18:24;;;;;;;3.85;1.33;;;11.90;99.90;;;;;;4975635;28;20027;-48
2022/07/02 02:20:50;;;;;;;3.05;1.27;;;12.00;99.90;;;;;;4975275;28;20394;-46
2022/07/02 02:23:15;;;;;;;5.60;1.50;;;12.00;99.90;;;;;;4975401;28;20039;-54
2022/07/02 02:25:41;;;;;;;5.38;1.17;;;12.00;99.90;;;;;;4958097;28;20130;-53
2022/07/02 02:28:07;;;;;;;5.03;1.20;;;12.00;99.90;;;;;;4994491;28;20058;-53
2022/07/02 02:30:32;;;;;;;4.35;1.30;;;12.00;99.90;;;;;;4994700;28;20025;-47
2022/07/02 02:32:58;;;;;;;3.97;1.45;;;12.00;99.90;;;;;;4988434;28;20513;-53
2022/07/02 02:35:25;;;;;;;6.00;1.38;;;12.00;99.90;;;;;;4994624;28;20034;-57
2022/07/02 02:37:50;;;;;;;6.25;1.38;;;12.00;99.90;;;;;;4994286;28;20081;-52
2022/07/02 02:40:16;;;;;;;3.45;1.50;;;12.00;99.90;;;;;;4994584;28;20027;-47
2022/07/02 02:42:41;;;;;;;4.45;1.40;;;12.00;99.90;;;;;;4994337;28;20026;-57
2022/07/02 02:45:08;;;;;;;3.72;1.52;;;12.10;99.90;;;;;;4994600;28;20037;-48
2022/07/02 02:47:33;;;;;;;2.92;1.30;;;12.10;99.90;;;;;;4994465;28;20041;-46
2022/07/02 02:49:59;;;;;;;3.65;1.55;;;12.10;99.90;;;;;;4988553;28;20098;-55
2022/07/02 02:52:24;;;;;;;7.05;1.33;;;12.00;99.90;;;;;;4986816;28;20034;-49
2022/07/02 02:54:50;;;;;;;5.95;1.50;;;12.10;99.90;;;;;;4994621;28;20026;-53
2022/07/02 02:57:16;;;;;;;3.13;1.20;;;12.10;99.90;;;;;;4994322;28;20569;-50
2022/07/02 02:59:41;;;;;;;5.07;1.35;;;12.20;99.90;;;;;;4994030;28;20030;-57
2022/07/02 03:02:07;;;;;;;5.30;1.60;;;12.20;99.90;;;;;;4994186;28;20022;-55
2022/07/02 03:04:33;;;;;;;8.77;1.67;;;12.30;99.90;;;;;;4994220;28;20058;-51
2022/07/02 03:06:59;;;;;;;4.50;1.73;;;12.30;99.90;;;;;;4994072;28;20030;-53
2022/07/02 03:09:25;;;;;;;3.85;1.80;;;12.30;99.90;;;;;;4993985;28;20489;-50
2022/07/02 03:11:51;;;;;;;8.25;1.45;;;12.30;99.90;;;;;;4990026;28;20106;-51
2022/07/02 03:14:16;;;;;;;6.03;1.52;;;12.30;99.90;;;;;;4983934;28;20054;-50
2022/07/02 03:16:42;;;;;;;2.78;1.35;;;12.30;99.90;;;;;;4993895;28;20033;-52
2022/07/02 03:19:08;;;;;;;3.92;1.40;;;12.30;99.90;;;;;;4994017;28;20022;-55
2022/07/02 03:21:33;;;;;;;3.85;1.40;;;12.30;99.90;;;;;;4993789;28;20081;-44
2022/07/02 03:23:59;;;;;;;3.35;1.40;;;12.40;99.90;;;;;;4993774;28;20068;-43
2022/07/02 03:26:24;;;;;;;6.43;1.77;;;12.40;99.90;;;;;;4993910;28;20409;-56
2022/07/02 03:28:50;;;;;;;3.15;1.20;;;12.40;99.90;;;;;;4993650;28;20496;-52
2022/07/02 03:31:16;;;;;;;4.70;1.50;;;12.40;99.90;;;;;;4993870;28;20019;-55
2022/07/02 03:33:41;;;;;;;2.28;1.40;;;12.50;99.90;;;;;;4993456;28;20030;-50
2022/07/02 03:36:08;;;;;;;5.13;1.35;;;12.50;99.90;;;;;;4993535;28;20030;-48
2022/07/02 03:38:34;;;;;;;4.18;1.30;;;12.50;99.90;;;;;;4993931;28;20045;-50
2022/07/02 03:41:01;;;;;;;4.55;1.30;;;12.60;99.90;;;;;;4993609;28;20030;-48
2022/07/02 03:43:27;;;;;;;1.98;0.93;;;12.60;99.90;;;;;;4987282;28;20125;-43
2022/07/02 03:45:52;;;;;;;3.33;1.13;;;12.60;99.90;;;;;;4993431;28;20102;-50
2022/07/02 03:48:18;;;;;;;5.10;1.33;;;12.70;99.90;;;;;;4993409;28;20426;-52
2022/07/02 03:50:44;;;;;;;3.67;1.25;;;12.70;99.90;;;;;;4993224;28;20387;-53
2022/07/02 03:53:10;;;;;;;3.88;1.30;;;12.60;99.90;;;;;;4993490;28;20027;-57
2022/07/02 03:55:35;;;;;;;2.53;1.05;;;12.60;99.90;;;;;;4993233;28;20022;-58
2022/07/02 03:58:01;;;;;;;3.53;1.35;;;12.50;99.90;;;;;;4993092;28;20359;-55
2022/07/02 04:00:27;;;;;;;3.22;1.35;;;12.50;99.90;;;;;;4993126;28;20061;-57
2022/07/02 04:02:53;;;;;;;3.60;1.27;;;12.50;99.90;;;;;;4992860;28;20367;-55
2022/07/02 04:05:19;;;;;;;6.18;1.30;;;12.50;99.90;;;;;;4993432;28;20470;-50
2022/07/02 04:07:44;;;;;;;3.78;1.10;;;12.50;99.90;;;;;;4993272;28;20482;-56
2022/07/02 04:10:10;;;;;;;2.47;1.20;;;12.40;99.90;;;;;;4992325;28;20397;-51
2022/07/02 04:12:36;;;;;;;4.90;1.10;;;12.40;99.90;;;;;;4980829;28;20062;-46
2022/07/02 04:15:03;;;;;;;2.80;1.30;;;12.30;99.90;;;;;;4980232;28;20394;-50
2022/07/02 04:17:28;;;;;;;2.80;1.10;;;12.30;99.90;;;;;;4992753;28;20018;-46
2022/07/02 04:19:54;;;;;;;6.53;2.30;;;12.30;99.90;;;;;;4992703;28;20038;-54
2022/07/02 04:22:20;;;;;;;2.83;1.20;;;12.30;99.90;;;;;;4992856;28;20037;-58
2022/07/02 04:24:46;;;;;;;3.30;1.30;;;12.30;99.90;;;;;;4992809;28;20038;-58
2022/07/02 04:27:11;;;;;;;6.03;1.23;;;12.30;99.90;;;;;;4992677;28;20409;-58
2022/07/02 04:29:37;;;;;;;3.78;1.10;;;12.30;99.90;;;;;;4992779;28;20388;-52
2022/07/02 04:32:03;;;;;;;8.45;1.63;;;12.30;99.90;;;;;;4992561;28;20081;-53
2022/07/02 04:34:29;;;;;;;3.05;1.15;;;12.30;99.90;;;;;;4992335;28;20026;-58
2022/07/02 04:36:54;;;;;;;4.13;1.40;;;12.30;99.90;;;;;;4992568;28;20027;-58
2022/07/02 04:39:20;;;;;;;4.60;1.80;;;12.40;99.90;;;;;;4992490;28;20018;-54
2022/07/02 04:41:45;;;;;;;3.72;1.20;;;12.40;99.90;;;;;;4987301;28;20037;-61
2022/07/02 04:44:12;;;;;;;4.15;1.20;;;12.40;99.90;;;;;;4965407;28;20394;-52
2022/07/02 04:46:38;;;;;;;6.88;1.67;;;12.50;99.90;;;;;;4992307;28;20030;-55
2022/07/02 04:49:03;;;;;;;4.60;1.10;;;12.40;99.90;;;;;;4992189;28;20038;-45
2022/07/02 04:51:29;;;;;;;2.15;1.20;;;12.50;99.90;;;;;;4992396;28;20072;-58
2022/07/02 04:53:55;;;;;;;3.55;1.20;;;12.50;99.90;;;;;;4992316;28;20098;-57
2022/07/02 04:56:21;;;;;;;2.42;1.25;;;12.60;99.90;;;;;;4992119;28;20037;-57
2022/07/02 04:58:46;;;;;;;5.50;1.00;;;12.80;99.90;;;;;;4992192;28;20027;-59
2022/07/02 05:01:12;;;;;;;3.85;1.10;;;13.20;99.90;;;;;;4991929;28;20030;-47
2022/07/02 05:03:37;;;;;;;3.92;1.17;;;13.50;99.90;;;;;;4992100;28;20038;-57
2022/07/02 05:06:03;;;;;;;4.07;1.17;;;13.80;99.90;;;;;;4991945;28;20033;-58
2022/07/02 05:08:29;;;;;;;3.13;0.90;;;13.90;99.90;;;;;;4992236;28;20030;-53
2022/07/02 05:10:55;;;;;;;5.38;1.08;;;14.20;99.90;;;;;;4991669;28;20102;-59
2022/07/02 05:13:22;;;;;;;2.53;0.70;;;14.40;99.90;;;;;;4978029;28;20077;-56
2022/07/02 05:15:48;;;;;;;5.75;1.00;;;14.50;99.90;;;;;;4991965;28;20053;-54
2022/07/02 05:18:14;;;;;;;1.40;0.82;;;14.60;99.90;;;;;;4989029;28;20078;-60
2022/07/02 05:20:40;;;;;;;4.85;1.05;;;14.50;99.90;;;;;;4981029;28;20027;-54
2022/07/02 05:23:06;;;;;;;2.20;0.90;;;14.40;99.90;;;;;;4990798;28;20038;-54
2022/07/02 05:25:32;;;;;;;4.20;1.38;;;14.20;99.90;;;;;;4991924;28;20023;-56
2022/07/02 05:27:57;;;;;;;2.63;0.88;;;14.20;99.90;;;;;;4991700;28;20097;-57
2022/07/02 05:30:23;;;;;;;5.32;1.17;;;14.20;99.90;;;;;;4991608;28;20090;-53
2022/07/02 05:32:49;;;;;;;2.15;0.95;;;14.20;99.90;;;;;;4991687;28;20026;-59
2022/07/02 05:35:14;;;;;;;4.22;0.85;;;14.20;99.90;;;;;;4991546;28;20049;-49
2022/07/02 05:37:40;;;;;;;4.15;1.00;;;14.10;99.90;;;;;;4991573;28;20030;-58
2022/07/02 05:40:07;;;;;;;3.67;1.00;;;14.10;99.90;;;;;;4969603;28;20104;-53
2022/07/02 05:42:33;;;;;;;5.15;0.90;;;14.10;99.90;;;;;;4988845;28;20042;-58
2022/07/02 05:44:58;;;;;;;4.38;1.20;;;14.10;99.90;;;;;;4991529;28;20034;-52
2022/07/02 05:47:24;;;;;;;3.55;1.05;;;14.10;99.90;;;;;;4991375;28;20445;-58
2022/07/02 05:49:50;;;;;;;3.75;1.50;;;14.00;99.90;;;;;;4991542;28;20027;-52
2022/07/02 05:52:18;;;;;;;3.40;1.52;;;14.10;99.90;;;;;;4984894;28;20033;-57
2022/07/02 05:54:44;;;;;;;4.70;1.00;;;14.20;99.90;;;;;;4989521;28;20116;-52
2022/07/02 05:57:10;;;;;;;6.22;1.45;;;14.70;99.90;;;;;;4983268;28;20026;-53
2022/07/02 05:59:36;;;;;;;3.67;0.73;;;15.10;99.90;;;;;;4990676;28;20108;-50
2022/07/02 06:02:05;;;;;;;2.30;0.82;;;16.10;99.90;;;;;;4962330;28;20379;-52
2022/07/02 06:04:31;;;;;;;3.83;0.70;;;17.00;98.10;;;;;;4971792;28;20439;-53
2022/07/02 06:09:42;;;;;;;5.78;1.10;;;17.70;95.90;;;;;;4971817;28;20556;-59
2022/07/02 06:12:08;;;;;;;2.60;1.05;;;18.30;94.00;;;;;;4971906;28;20067;-43
2022/07/02 06:14:34;;;;;;;2.55;0.75;;;18.30;95.50;;;;;;4971832;28;20067;-51
2022/07/02 06:17:00;;;;;;;2.30;0.60;;;18.80;94.70;;;;;;4971506;28;20121;-51
2022/07/02 06:19:26;;;;;;;4.32;0.70;;;19.00;94.30;;;;;;4971821;28;20023;-44
2022/07/02 06:21:51;;;;;;;4.32;0.82;;;19.60;93.10;;;;;;4971201;28;20038;-46
2022/07/02 06:24:17;;;;;;;5.97;1.00;;;20.10;90.50;;;;;;4971752;28;20583;-55
2022/07/02 06:26:43;;;;;;;4.05;0.60;;;20.10;90.20;;;;;;4971287;28;20453;-52
2022/07/02 06:29:09;;;;;;;2.50;0.60;;;20.60;91.30;;;;;;4971943;28;20023;-56
2022/07/02 06:31:36;;;;;;;3.38;0.50;;;21.30;87.80;;;;;;4971203;28;20031;-50
2022/07/02 06:34:03;;;;;;;4.22;0.90;;;21.50;86.20;;;;;;4976990;28;20049;-54
2022/07/02 06:36:28;;;;;;;2.58;0.60;;;21.70;80.50;;;;;;4994878;28;20022;-55
2022/07/02 06:38:54;;;;;;;2.42;0.70;;;21.30;83.60;;;;;;4984584;28;20367;-56
2022/07/02 06:44:05;;;;;;;2.88;0.70;;;21.90;82.80;;;;;;4974686;28;20041;-51
2022/07/02 06:46:30;;;;;;;3.38;0.70;;;22.40;79.30;;;;;;4975292;28;20022;-54
2022/07/02 06:48:56;;;;;;;3.10;0.60;;;22.40;78.30;;;;;;4974811;28;20034;-41
2022/07/02 06:51:22;;;;;;;3.15;0.50;;;22.40;76.90;;;;;;4975041;28;20486;-53
2022/07/02 06:53:48;;;;;;;1.45;0.52;;;22.40;78.00;;;;;;4975007;28;20022;-48
2022/07/02 06:56:14;;;;;;;3.30;0.68;;;23.00;77.30;;;;;;4974513;28;20419;-49
2022/07/02 06:58:39;;;;;;;3.53;0.68;;;22.90;71.70;;;;;;4974996;28;20073;-49
2022/07/02 07:01:05;;;;;;;2.70;0.85;;;23.00;71.20;;;;;;4975145;28;20470;-52
2022/07/02 07:03:31;;;;;;;3.60;0.65;;;23.90;70.70;;;;;;4974552;28;20034;-44
2022/07/02 07:05:56;;;;;;;1.60;0.40;;;24.60;64.00;;;;;;4974775;28;20550;-56
2022/07/02 07:08:22;;;;;;;2.33;0.50;;;24.60;60.70;;;;;;4974590;28;20476;-51
2022/07/02 07:10:48;;;;;;;1.27;0.50;;;24.00;58.40;;;;;;4974567;28;20031;-44
2022/07/02 07:13:13;;;;;;;2.72;0.43;;;24.00;61.60;;;;;;4974567;28;20518;-52
2022/07/02 07:15:40;;;;;;;2.67;0.45;;;23.80;62.10;;;;;;4974640;28;20097;-48
2022/07/02 07:18:06;;;;;;;1.50;0.57;;;23.80;59.50;;;;;;4974324;28;20166;-57
2022/07/02 07:20:32;;;;;;;2.10;0.50;;;23.60;60.80;;;;;;4974341;28;20538;-52
2022/07/02 07:22:59;;;;;;;1.02;0.40;;;23.30;61.70;;;;;;4973314;28;20051;-50
2022/07/02 07:25:26;;;;;;;1.75;0.45;;;22.70;63.70;;;;;;4963047;28;20131;-50
2022/07/02 07:27:52;;;;;;;2.03;0.50;;;22.20;66.70;;;;;;4974113;28;20537;-54
2022/07/02 07:30:18;;;;;;;2.63;0.82;;;22.00;68.10;;;;;;4974182;28;20045;-51
2022/07/02 07:32:44;;;;;;;1.90;0.50;;;22.40;70.30;;;;;;4974379;28;20019;-52
2022/07/02 07:35:10;;;;;;;2.53;0.60;;;22.50;69.50;;;;;;4986026;28;20478;-46
2022/07/02 07:37:36;;;;;;;2.03;0.68;;;22.40;63.80;;;;;;4993445;28;20033;-50
2022/07/02 07:40:07;;;;;;;2.78;0.50;;;22.90;66.70;;;;;;4988058;28;20034;-58
2022/07/02 07:42:33;;;;;;;1.10;0.50;;;23.10;62.30;;;;;;4990735;28;20023;-49
2022/07/02 07:44:58;;;;;;;3.30;0.52;;;23.20;60.60;;;;;;4985330;28;20549;-53
2022/07/02 07:47:24;;;;;;;2.55;0.50;;;23.20;61.90;;;;;;4993349;28;20030;-54
2022/07/02 07:49:49;;;;;;;1.95;0.50;;;24.10;59.40;;;;;;4993535;28;20092;-53
2022/07/02 07:52:15;;;;;;;1.08;0.50;;;24.70;57.20;;;;;;4993260;28;20110;-45
2022/07/02 07:54:41;;;;;;;1.85;0.40;;;25.30;57.20;;;;;;4993187;28;20010;-48
2022/07/02 07:57:07;;;;;;;0.65;0.30;;;26.30;53.60;;;;;;4993285;28;20046;-48
2022/07/02 07:59:32;;;;;;;2.47;0.65;;;27.00;47.40;;;;;;4993264;28;20030;-55
2022/07/02 08:01:58;;;;;;;1.65;0.40;;;27.10;48.20;;;;;;4993203;28;20540;-50
2022/07/02 08:04:24;;;;;;;1.20;0.40;;;27.80;47.30;;;;;;4992802;28;20522;-51
2022/07/02 08:06:49;;;;;;;1.30;0.40;;;28.50;46.90;;;;;;4993076;28;20030;-47
2022/07/02 08:09:15;;;;;;;2.05;0.70;;;28.80;42.30;;;;;;4984981;28;20023;-47
2022/07/02 08:11:41;;;;;;;1.35;0.40;;;29.00;44.20;;;;;;4992023;28;20019;-59
2022/07/02 08:14:07;;;;;;;1.98;0.55;;;29.30;43.30;;;;;;4992881;28;20033;-46
2022/07/02 08:16:33;;;;;;;2.22;0.50;;;29.10;45.10;;;;;;4975489;28;20033;-47
2022/07/02 08:18:58;;;;;;;1.65;0.40;;;29.20;44.60;;;;;;4992829;28;20034;-44
2022/07/02 08:21:24;;;;;;;2.70;0.80;;;29.00;43.60;;;;;;4992580;28;20027;-43
2022/07/02 08:23:50;;;;;;;1.95;0.50;;;28.80;44.20;;;;;;4992711;28;20034;-59
2022/07/02 08:26:16;;;;;;;2.78;0.70;;;27.80;44.50;;;;;;4980355;28;20106;-54
2022/07/02 08:28:41;;;;;;;3.58;0.75;;;26.80;47.90;;;;;;4972058;28;20433;-47
2022/07/02 08:31:07;;;;;;;2.08;0.60;;;25.90;49.10;;;;;;4955134;28;20018;-47
2022/07/02 08:33:33;;;;;;;1.58;0.52;;;25.00;52.70;;;;;;4972694;28;20038;-48
2022/07/02 08:35:59;;;;;;;3.08;0.70;;;24.60;57.30;;;;;;4981157;28;20027;-48
2022/07/02 08:38:25;;;;;;;2.65;0.60;;;24.50;55.00;;;;;;4966715;28;20473;-41
2022/07/02 08:40:51;;;;;;;3.40;0.98;;;24.90;59.60;;;;;;4972556;28;20038;-42
2022/07/02 08:43:17;;;;;;;3.10;0.50;;;26.00;53.20;;;;;;4972667;28;20441;-52
2022/07/02 08:45:44;;;;;;;1.98;0.50;;;26.60;50.10;;;;;;4972636;28;20130;-56
2022/07/02 08:48:11;;;;;;;2.45;0.40;;;26.30;51.80;;;;;;4971547;28;20081;-49
2022/07/02 08:50:38;;;;;;;3.45;0.90;;;27.10;53.20;;;;;;4972522;28;20026;-47
2022/07/02 08:53:05;;;;;;;1.85;0.70;;;27.90;50.10;;;;;;4971666;28;20478;-46
2022/07/02 08:55:34;;;;;;;1.35;0.40;;;28.70;48.50;;;;;;4971888;28;20491;-49
2022/07/02 08:58:00;;;;;;;3.47;0.60;;;28.40;46.90;;;;;;4972432;28;20109;-54
2022/07/02 09:00:26;;;;;;;1.25;0.70;;;28.10;48.20;;;;;;4972519;28;20033;-57
2022/07/02 09:02:53;;;;;;;2.97;0.60;;;27.80;49.40;;;;;;4972143;28;20110;-47
2022/07/02 09:05:21;;;;;;;2.78;0.60;;;27.70;46.90;;;;;;4970614;28;20478;-53
2022/07/02 09:07:48;;;;;;;3.00;0.60;;;27.10;46.30;;;;;;4972044;28;20051;-53
2022/07/02 09:10:17;;;;;;;2.05;0.60;;;26.80;47.00;;;;;;4970179;28;20031;-54
2022/07/02 09:12:44;;;;;;;1.45;0.60;;;25.90;48.20;;;;;;4970291;28;20027;-54
2022/07/02 09:15:10;;;;;;;2.05;0.65;;;25.40;51.80;;;;;;4953379;28;20030;-39
2022/07/02 09:17:37;;;;;;;2.50;0.50;;;25.40;53.50;;;;;;4970617;28;20554;-42
2022/07/02 09:20:04;;;;;;;1.25;0.40;;;25.80;52.50;;;;;;4970688;28;20474;-44
2022/07/02 09:22:35;;;;;;;2.53;0.65;;;25.40;52.20;;;;;;4970416;28;20037;-39
2022/07/02 09:25:15;;;;;;;3.17;0.70;;;25.30;53.50;;;;;;4969091;28;20557;-39
2022/07/02 09:27:42;;;;;;;3.08;0.80;;;25.40;54.80;;;;;;4955679;28;20097;-38
2022/07/02 09:30:09;;;;;;;3.38;1.02;;;25.50;56.60;;;;;;4970710;28;20058;-44
2022/07/02 09:32:41;;;;;;;3.35;1.08;;;25.30;53.90;;;;;;4970340;28;20019;-38
2022/07/02 09:35:07;;;;;;;2.38;0.85;;;25.30;52.60;;;;;;4970479;28;20707;-41
2022/07/02 09:37:33;;;;;;;1.17;0.52;;;25.60;54.30;;;;;;4989127;28;20466;-41
2022/07/02 09:40:02;;;;;;;3.28;0.70;;;25.90;54.50;;;;;;4970727;28;20114;-42
2022/07/02 09:42:32;;;;;;;;;;;25.40;49.70;;;;;;4969174;28;20535;-42
2022/07/02 09:45:00;;;;;;;2.05;0.90;;;24.10;52.00;;;;;;4971809;28;19910;-46
2022/07/02 09:47:49;;;;;;;2.72;0.90;;;23.30;57.10;;;;;;4971365;28;20019;-39
2022/07/02 09:50:16;;;;;;;;;;;23.30;59.50;;;;;;4971145;28;20038;-42
2022/07/02 09:52:50;;;;;;;1.48;0.70;;;23.80;56.90;;;;;;4971362;28;19918;-49
2022/07/02 09:55:22;;;;;;;1.65;0.60;;;24.10;57.70;;;;;;4971362;28;20026;-57
2022/07/02 09:58:08;;;;;;;3.33;1.70;;;25.00;62.00;;;;;;4971567;28;20034;-52
2022/07/02 10:00:44;;;;;;;2.90;1.25;;;25.40;57.70;;;;;;4970988;28;20525;-47
2022/07/02 10:03:09;;;;;;;1.92;1.05;;;25.70;53.90;;;;;;4970209;28;20479;-42
2022/07/02 10:05:35;;;;;;;3.75;0.95;;;26.00;53.00;;;;;;4971283;28;20078;-53
2022/07/02 10:08:04;;;;;;;2.15;0.40;;;25.60;51.20;;;;;;4973963;28;20030;-39
2022/07/02 10:10:38;;;;;;;2.50;0.80;;;25.70;49.20;;;;;;4974997;28;20041;-57
2022/07/02 10:13:05;;;;;;;1.88;0.50;;;25.60;52.70;;;;;;4972882;28;20027;-58
2022/07/02 10:15:32;;;;;;;1.58;0.68;;;25.50;50.30;;;;;;4975243;28;20081;-39
2022/07/02 10:18:03;;;;;;;1.20;0.43;;;25.60;54.30;;;;;;4974989;28;20133;-44
2022/07/02 10:20:33;;;;;;;1.52;0.50;;;25.50;52.50;;;;;;4975073;28;20027;-39
2022/07/02 10:23:02;;;;;;;2.25;0.73;;;25.70;52.60;;;;;;4974778;28;20069;-43
2022/07/02 10:25:29;;;;;;;1.77;0.63;;;26.00;50.20;;;;;;4975046;28;20162;-38
2022/07/02 10:27:55;;;;;;;1.27;0.55;;;25.00;50.50;;;;;;4974938;28;20043;-57
2022/07/02 10:30:24;;;;;;;2.30;0.50;;;24.60;52.30;;;;;;4974816;28;20061;-55
2022/07/02 10:33:18;;;;;;;1.75;0.60;;;24.70;56.40;;;;;;4975008;28;20035;-48
2022/07/02 10:35:45;;;;;;;2.75;0.50;;;25.00;51.90;;;;;;4992230;28;20092;-58
2022/07/02 10:38:11;;;;;;;1.33;0.40;;;25.50;49.80;;;;;;4991467;28;20122;-55
2022/07/02 10:40:49;;;;;;;2.83;0.68;;;25.80;52.60;;;;;;4990161;28;20475;-52
2022/07/02 10:43:19;;;;;;;1.08;0.35;;;25.60;48.30;;;;;;4985124;28;20030;-51
2022/07/02 10:45:45;;;;;;;1.58;0.52;;;25.40;48.60;;;;;;4975369;28;20133;-55
2022/07/02 10:48:13;;;;;;;1.00;0.40;;;25.50;51.20;;;;;;4974933;28;20518;-46
2022/07/02 10:50:45;;;;;;;3.20;1.23;;;24.90;51.70;;;;;;4975540;28;20022;-42
2022/07/02 10:53:22;;;;;;;3.03;0.90;;;24.80;56.40;;;;;;4975045;28;20065;-57
2022/07/02 10:55:51;;;;;;;2.85;1.25;;;25.00;52.70;;;;;;4974896;28;20057;-41
2022/07/02 10:58:34;;;;;;;2.15;0.60;;;25.30;52.90;;;;;;4974978;28;20098;-51
2022/07/02 11:01:10;;;;;;;1.20;0.68;;;25.30;51.40;;;;;;4970229;28;20035;-39
2022/07/02 11:03:36;;;;;;;1.42;0.73;;;25.20;49.50;;;;;;4974024;28;20034;-42
2022/07/02 11:06:02;;;;;;;1.63;0.68;;;25.00;52.60;;;;;;4973956;28;20030;-46
2022/07/02 11:08:48;;;;;;;1.58;0.47;;;24.90;52.60;;;;;;4973969;28;20019;-41
2022/07/02 11:11:30;;;;;;;1.88;0.50;;;24.70;55.50;;;;;;4972729;28;20443;-40
2022/07/02 11:14:01;;;;;;;2.03;0.60;;;24.80;54.50;;;;;;4970787;28;20410;-51
2022/07/02 11:16:39;;;;;;;3.63;0.50;;;25.50;53.40;;;;;;4973373;28;20015;-46
2022/07/02 11:19:16;;;;;;;1.42;0.60;;;25.70;50.50;;;;;;4971496;28;20486;-49
2022/07/02 11:21:42;;;;;;;3.38;0.70;;;25.90;53.30;;;;;;4969378;28;20039;-47
2022/07/02 11:24:10;;;;;;;2.22;0.50;;;25.80;52.50;;;;;;4972529;28;20482;-45
2022/07/02 11:26:40;;;;;;;1.05;0.38;;;25.70;49.60;;;;;;4972976;28;20046;-43
2022/07/02 11:29:06;;;;;;;1.60;0.50;;;24.70;51.00;;;;;;4972774;28;20037;-55
2022/07/02 11:31:36;;;;;;;2.80;0.63;;;24.90;52.60;;;;;;4969517;28;20110;-56
2022/07/02 11:34:03;;;;;;;2.17;0.70;;;25.10;52.80;;;;;;4971160;28;20022;-53
2022/07/02 11:36:29;;;;;;;2.05;0.50;;;25.40;49.30;;;;;;4979408;28;20382;-51
2022/07/02 11:38:55;;;;;;;1.85;0.60;;;25.60;55.10;;;;;;4969271;28;20039;-49
2022/07/02 11:41:26;;;;;;;1.85;0.60;;;24.90;49.60;;;;;;4972695;28;20027;-57
2022/07/02 11:43:54;;;;;;;1.38;0.45;;;24.90;54.30;;;;;;4969622;28;20071;-48
2022/07/02 11:46:22;;;;;;;2.27;0.70;;;25.20;49.90;;;;;;4973337;28;20046;-56
2022/07/02 11:48:49;;;;;;;3.10;0.60;;;25.30;52.60;;;;;;4973819;28;20023;-51
2022/07/02 11:51:15;;;;;;;1.13;0.50;;;25.50;56.20;;;;;;4973343;28;20031;-50
2022/07/02 11:53:41;;;;;;;0.93;0.35;;;26.00;53.00;;;;;;4973604;28;20065;-55
2022/07/02 11:56:09;;;;;;;0.70;0.40;;;26.30;49.90;;;;;;4972372;28;20058;-57
2022/07/02 11:58:46;;;;;;;2.58;0.50;;;26.70;52.10;;;;;;4973698;28;20031;-49
2022/07/02 12:01:18;;;;;;;1.10;0.40;;;26.60;47.30;;;;;;4973091;28;20031;-48
2022/07/02 12:03:45;;;;;;;2.10;0.50;;;25.90;48.60;;;;;;4972077;28;20035;-52
2022/07/02 12:06:11;;;;;;;2.90;0.50;;;25.10;49.30;;;;;;4973501;28;20055;-50
2022/07/02 12:08:37;;;;;;;2.45;1.10;;;24.90;52.20;;;;;;4973370;28;20094;-49
2022/07/02 12:11:16;;;;;;;1.67;0.50;;;25.00;51.90;;;;;;4972675;28;20031;-44
2022/07/02 12:13:43;;;;;;;2.88;0.70;;;24.80;54.80;;;;;;4969101;28;20034;-53
2022/07/02 12:16:13;;;;;;;1.50;0.43;;;24.90;53.90;;;;;;4971996;28;20038;-53
2022/07/02 12:18:40;;;;;;;1.95;0.40;;;25.30;52.30;;;;;;4969021;28;20034;-53
2022/07/02 12:21:14;;;;;;;1.25;0.60;;;25.60;53.50;;;;;;4968152;28;20149;-54
2022/07/02 12:23:45;;;;;;;2.38;0.45;;;25.90;52.50;;;;;;4971778;28;20071;-53
2022/07/02 12:26:17;;;;;;;1.30;0.40;;;25.60;50.40;;;;;;4971992;28;20026;-49
2022/07/02 12:32:02;;;;;;;1.38;0.70;;;25.10;50.90;;;;;;4971541;28;20050;-41
2022/07/02 12:34:46;;;;;;;1.48;0.40;;;25.30;52.20;;;;;;4965796;28;20027;-41
2022/07/02 12:37:31;;;;;;;3.20;0.57;;;25.20;54.00;;;;;;4968794;28;20034;-40
2022/07/02 12:40:10;;;;;;;3.33;0.60;;;25.20;50.40;;;;;;4969471;28;20046;-49
2022/07/02 12:42:49;;;;;;;;;;;25.20;50.60;;;;;;4968953;28;20034;-52
2022/07/02 12:45:26;;;;;;;0.60;0.38;;;24.90;50.60;;;;;;4965798;28;19914;-48
2022/07/02 12:48:03;;;;;;;1.50;0.40;;;24.50;53.30;;;;;;4971304;28;20284;-44
2022/07/02 12:50:31;;;;;;;1.88;0.60;;;24.60;56.00;;;;;;4972697;28;20019;-57
2022/07/02 12:53:02;;;;;;;2.53;0.65;;;24.70;56.70;;;;;;4971558;28;20029;-51
2022/07/02 12:55:33;;;;;;;1.10;0.50;;;24.80;53.10;;;;;;4972281;28;20037;-44
2022/07/02 12:58:01;;;;;;;2.05;0.55;;;24.80;52.20;;;;;;4972157;28;20105;-50
2022/07/02 13:00:29;;;;;;;1.63;0.60;;;24.70;53.70;;;;;;4972154;28;20019;-57